Cornelia, Georgia
Current Conditions -  °F | °C
As of 4:55 AM on Sunday 23 Nov 2014 (Local Time) from KTOC Reporting Station
Moderate Rain Moderate Rain  
Wind Chill: 40°   Ceiling: 1700
Heat Index: 44°   Visibility: 7mi
Dew Point: 40°   Wind: 6mph
Humidity: 85%   Direction: 40°NE
Pressure: 30.19"   Gusts: NA
Location:  34.51°N, 83.53°W
Report Text: KTOC 230955Z AUTO 04005KT 7SM RA OVC017 07/04 A3019 RMK AO2 T00650042
Loading
Personal Weather Stations






























Interactive Weather Map New forecast layout! Learn more

10-Day Weather Forecast

Advertisements
Track Severe Weather on mobile